Palouse, WA (99161)

2:53 PM PDT on September 16, 2014 (GMT -0700)
Palouse Cove | Change Station
CLOSE
Current Station
Personal Weather Station
Location: Palouse, WA
Elevation: 2462 ft
Nearby Weather Stations

Elev 2462 ft 46.91 °N, 117.08 °W | Updated 28 seconds ago

Partly Cloudy
Partly Cloudy
84.7 °F
Feels Like 82 °F
N
4.0
Wind Variable Wind from NW
Gusts 7.0 mph

Today
High -- | Low -- °F
--% Chance of Precip.
Yesterday
High -- | Low -- °F
Precip. -- in
6:27 AM 6:57 PM
Last Quarter, 42% visible
Pressure 29.86 in
Visibility 10.0 miles
Clouds Clear
Heat Index 82 °F
Dew Point 35 °F
Humidity 17%
Rainfall 0.00 in
Snow Depth 0 in , 0 in , 0 in
UV 6 out of 12
Pollen 6.90 out of 12
Air Quality Not available.
Flu Activity Not available.
METAR KPUW 162053Z AUTO 29010KT 10SM CLR 29/01 A2991 RMK AO2 SLP110 T02940006 56004

More Conditions Fewer Conditions

Pressure 29.86 in
Visibility 10.0 miles
Clouds Clear
Heat Index 82 °F
Dew Point 35 °F
Humidity 17%
Rainfall 0.00 in
Snow Depth 0 in , 0 in , 0 in
UV 6 out of 12
Pollen 6.90 out of 12
Air Quality Not available.
Flu Activity Not available.
METAR KPUW 162053Z AUTO 29010KT 10SM CLR 29/01 A2991 RMK AO2 SLP110 T02940006 56004

More Conditions Fewer Conditions

10-Day Weather Forecast

Almanac

Astronomy

Sep. 16, 2014 Rise Set
Actual Time 6:27 AM PDT 6:57 PM PDT
Civil Twilight 5:56 AM PDT 7:28 PM PDT
Nautical Twilight 5:20 AM PDT 8:04 PM PDT
Astronomical Twilight 4:43 AM PDT 8:41 PM PDT
Moon No Moon Rise 2:41 PM PDT
Length of Visible Light 13h 31m
Length of Day
12h 30m
Tomorrow will be 3m 19s shorter.
Last Quarter, 42% of the Moon is Illuminated
Today
Last Quarter
Sep 24
New
Oct 1
First Quarter
Oct 8
Full
Oct 15
Last Quarter

Today's Extremes

State Highs State Lows

Community

WunderPhotos

Upload Photos

1,753,895 photos uploaded!

Nearby

Snow Depth

Station Depth Elevation
Green Lake 0 in 6000 ft
Alpine Meadows 0 in 3500 ft
Surprise Lakes 0 in 4250 ft
Quartz Peak 0 in 4700 ft
Pope Ridge 0 in 3540 ft

Earthquake Activity

City Distance Mag. Time & Date
No recent earthquake activity has been reported nearby.
Minimum magnitude displayed is 2.5.

Coastal Water Temperatures

Place Temperature
No Stations Reporting

Nearby Weather Stations